sensor_id;sensor_type;location;lat;lon;timestamp;temperature;humidity
54622;DHT22;40521;53.146;6.556;2022-11-12T00:00:58;6.20;99.90
54622;DHT22;40521;53.146;6.556;2022-11-12T00:03:24;6.20;99.90
54622;DHT22;40521;53.146;6.556;2022-11-12T00:05:50;6.20;99.90
54622;DHT22;40521;53.146;6.556;2022-11-12T00:08:17;6.20;99.90
54622;DHT22;40521;53.146;6.556;2022-11-12T00:10:43;6.20;99.90
54622;DHT22;40521;53.146;6.556;2022-11-12T00:13:09;6.10;99.90
54622;DHT22;40521;53.146;6.556;2022-11-12T00:15:34;6.10;99.90
54622;DHT22;40521;53.146;6.556;2022-11-12T00:18:00;6.10;99.90
54622;DHT22;40521;53.146;6.556;2022-11-12T00:20:26;6.10;99.90
54622;DHT22;40521;53.146;6.556;2022-11-12T00:22:51;6.10;99.90
54622;DHT22;40521;53.146;6.556;2022-11-12T00:25:17;6.00;99.90
54622;DHT22;40521;53.146;6.556;2022-11-12T00:27:42;6.00;99.90
54622;DHT22;40521;53.146;6.556;2022-11-12T00:30:08;6.00;99.90
54622;DHT22;40521;53.146;6.556;2022-11-12T00:32:34;6.00;99.90
54622;DHT22;40521;53.146;6.556;2022-11-12T00:35:00;5.90;99.90
54622;DHT22;40521;53.146;6.556;2022-11-12T00:37:26;5.80;99.90
54622;DHT22;40521;53.146;6.556;2022-11-12T00:39:51;5.90;99.90
54622;DHT22;40521;53.146;6.556;2022-11-12T00:42:17;5.80;99.90
54622;DHT22;40521;53.146;6.556;2022-11-12T00:44:43;5.80;99.90
54622;DHT22;40521;53.146;6.556;2022-11-12T00:47:08;5.90;99.90
54622;DHT22;40521;53.146;6.556;2022-11-12T00:49:34;5.90;99.90
54622;DHT22;40521;53.146;6.556;2022-11-12T00:51:59;5.90;99.90
54622;DHT22;40521;53.146;6.556;2022-11-12T00:54:25;5.90;99.90
54622;DHT22;40521;53.146;6.556;2022-11-12T00:56:51;5.90;99.90
54622;DHT22;40521;53.146;6.556;2022-11-12T00:59:16;5.90;99.90
54622;DHT22;40521;53.146;6.556;2022-11-12T01:01:42;5.90;99.90
54622;DHT22;40521;53.146;6.556;2022-11-12T01:04:07;5.90;99.90
54622;DHT22;40521;53.146;6.556;2022-11-12T01:06:33;6.10;99.90
54622;DHT22;40521;53.146;6.556;2022-11-12T01:08:58;5.90;99.90
54622;DHT22;40521;53.146;6.556;2022-11-12T01:11:28;5.90;99.90
54622;DHT22;40521;53.146;6.556;2022-11-12T01:16:20;5.80;99.90
54622;DHT22;40521;53.146;6.556;2022-11-12T01:18:46;5.80;99.90
54622;DHT22;40521;53.146;6.556;2022-11-12T01:21:12;5.80;99.90
54622;DHT22;40521;53.146;6.556;2022-11-12T01:23:39;5.80;99.90
54622;DHT22;40521;53.146;6.556;2022-11-12T01:26:06;5.80;99.90
54622;DHT22;40521;53.146;6.556;2022-11-12T01:28:32;5.90;99.90
54622;DHT22;40521;53.146;6.556;2022-11-12T01:31:08;5.70;99.90
54622;DHT22;40521;53.146;6.556;2022-11-12T01:33:33;5.70;99.90
54622;DHT22;40521;53.146;6.556;2022-11-12T01:36:02;5.70;99.90
54622;DHT22;40521;53.146;6.556;2022-11-12T01:38:28;5.10;99.90
54622;DHT22;40521;53.146;6.556;2022-11-12T01:40:53;5.70;99.90
54622;DHT22;40521;53.146;6.556;2022-11-12T01:43:19;5.70;99.90
54622;DHT22;40521;53.146;6.556;2022-11-12T01:45:45;5.70;99.90
54622;DHT22;40521;53.146;6.556;2022-11-12T01:48:14;5.70;99.90
54622;DHT22;40521;53.146;6.556;2022-11-12T01:50:43;5.60;99.90
54622;DHT22;40521;53.146;6.556;2022-11-12T01:53:09;5.80;99.90
54622;DHT22;40521;53.146;6.556;2022-11-12T01:55:36;5.70;99.90
54622;DHT22;40521;53.146;6.556;2022-11-12T01:58:09;4.80;99.90
54622;DHT22;40521;53.146;6.556;2022-11-12T02:00:39;5.60;99.90
54622;DHT22;40521;53.146;6.556;2022-11-12T02:03:05;5.60;99.90
54622;DHT22;40521;53.146;6.556;2022-11-12T02:05:32;5.60;99.90
54622;DHT22;40521;53.146;6.556;2022-11-12T02:07:58;5.60;99.90
54622;DHT22;40521;53.146;6.556;2022-11-12T02:10:25;5.60;99.90
54622;DHT22;40521;53.146;6.556;2022-11-12T02:12:51;5.60;99.90
54622;DHT22;40521;53.146;6.556;2022-11-12T02:15:36;5.50;99.90
54622;DHT22;40521;53.146;6.556;2022-11-12T02:18:02;5.50;99.90
54622;DHT22;40521;53.146;6.556;2022-11-12T02:20:31;5.50;99.90
54622;DHT22;40521;53.146;6.556;2022-11-12T02:22:57;5.40;99.90
54622;DHT22;40521;53.146;6.556;2022-11-12T02:25:22;5.40;99.90
54622;DHT22;40521;53.146;6.556;2022-11-12T02:27:50;5.40;99.90
54622;DHT22;40521;53.146;6.556;2022-11-12T02:30:36;5.40;99.90
54622;DHT22;40521;53.146;6.556;2022-11-12T02:33:02;5.30;99.90
54622;DHT22;40521;53.146;6.556;2022-11-12T02:35:28;5.30;99.90
54622;DHT22;40521;53.146;6.556;2022-11-12T02:37:54;5.30;99.90
54622;DHT22;40521;53.146;6.556;2022-11-12T02:40:19;5.20;99.90
54622;DHT22;40521;53.146;6.556;2022-11-12T02:42:45;5.20;99.90
54622;DHT22;40521;53.146;6.556;2022-11-12T02:45:11;5.20;99.90
54622;DHT22;40521;53.146;6.556;2022-11-12T02:47:36;5.20;99.90
54622;DHT22;40521;53.146;6.556;2022-11-12T02:50:02;5.30;99.90
54622;DHT22;40521;53.146;6.556;2022-11-12T02:52:28;5.30;99.90
54622;DHT22;40521;53.146;6.556;2022-11-12T02:54:53;5.20;99.90
54622;DHT22;40521;53.146;6.556;2022-11-12T02:57:19;5.20;99.90
54622;DHT22;40521;53.146;6.556;2022-11-12T02:59:45;5.10;99.90
54622;DHT22;40521;53.146;6.556;2022-11-12T03:02:10;5.10;99.90
54622;DHT22;40521;53.146;6.556;2022-11-12T03:04:36;5.10;99.90
54622;DHT22;40521;53.146;6.556;2022-11-12T03:07:01;5.00;99.90
54622;DHT22;40521;53.146;6.556;2022-11-12T03:09:27;5.00;99.90
54622;DHT22;40521;53.146;6.556;2022-11-12T03:11:53;5.00;99.90
54622;DHT22;40521;53.146;6.556;2022-11-12T03:14:18;5.00;99.90
54622;DHT22;40521;53.146;6.556;2022-11-12T03:16:44;5.00;99.90
54622;DHT22;40521;53.146;6.556;2022-11-12T03:19:09;4.90;99.90
54622;DHT22;40521;53.146;6.556;2022-11-12T03:21:35;4.90;99.90
54622;DHT22;40521;53.146;6.556;2022-11-12T03:24:01;4.90;99.90
54622;DHT22;40521;53.146;6.556;2022-11-12T03:26:26;4.80;99.90
54622;DHT22;40521;53.146;6.556;2022-11-12T03:28:52;4.80;99.90
54622;DHT22;40521;53.146;6.556;2022-11-12T03:31:17;4.80;99.90
54622;DHT22;40521;53.146;6.556;2022-11-12T03:33:43;4.80;99.90
54622;DHT22;40521;53.146;6.556;2022-11-12T03:36:09;4.80;99.90
54622;DHT22;40521;53.146;6.556;2022-11-12T03:38:40;5.10;99.90
54622;DHT22;40521;53.146;6.556;2022-11-12T03:41:06;4.70;99.90
54622;DHT22;40521;53.146;6.556;2022-11-12T03:43:31;4.70;99.90
54622;DHT22;40521;53.146;6.556;2022-11-12T03:45:57;4.80;99.90
54622;DHT22;40521;53.146;6.556;2022-11-12T03:48:22;4.80;99.90
54622;DHT22;40521;53.146;6.556;2022-11-12T03:50:48;4.70;99.90
54622;DHT22;40521;53.146;6.556;2022-11-12T03:53:14;4.70;99.90
54622;DHT22;40521;53.146;6.556;2022-11-12T03:55:39;4.70;99.90
54622;DHT22;40521;53.146;6.556;2022-11-12T03:58:05;4.70;99.90
54622;DHT22;40521;53.146;6.556;2022-11-12T04:00:31;4.70;99.90
54622;DHT22;40521;53.146;6.556;2022-11-12T04:02:56;4.70;99.90
54622;DHT22;40521;53.146;6.556;2022-11-12T04:05:36;4.70;99.90
54622;DHT22;40521;53.146;6.556;2022-11-12T04:08:23;4.70;99.90
54622;DHT22;40521;53.146;6.556;2022-11-12T04:11:13;4.70;99.90
54622;DHT22;40521;53.146;6.556;2022-11-12T04:13:39;4.60;99.90
54622;DHT22;40521;53.146;6.556;2022-11-12T04:16:10;4.60;99.90
54622;DHT22;40521;53.146;6.556;2022-11-12T04:18:55;4.50;99.90
54622;DHT22;40521;53.146;6.556;2022-11-12T04:21:50;4.50;99.90
54622;DHT22;40521;53.146;6.556;2022-11-12T04:27:00;4.40;99.90
54622;DHT22;40521;53.146;6.556;2022-11-12T04:29:26;4.40;99.90
54622;DHT22;40521;53.146;6.556;2022-11-12T04:32:10;4.40;99.90
54622;DHT22;40521;53.146;6.556;2022-11-12T04:34:36;4.40;99.90
54622;DHT22;40521;53.146;6.556;2022-11-12T04:37:02;4.40;99.90
54622;DHT22;40521;53.146;6.556;2022-11-12T04:39:28;4.40;99.90
54622;DHT22;40521;53.146;6.556;2022-11-12T04:41:54;4.60;99.90
54622;DHT22;40521;53.146;6.556;2022-11-12T04:44:38;5.00;99.90
54622;DHT22;40521;53.146;6.556;2022-11-12T04:47:23;4.40;99.90
54622;DHT22;40521;53.146;6.556;2022-11-12T04:49:48;4.30;99.90
54622;DHT22;40521;53.146;6.556;2022-11-12T04:52:14;4.30;99.90
54622;DHT22;40521;53.146;6.556;2022-11-12T04:54:39;4.30;99.90
54622;DHT22;40521;53.146;6.556;2022-11-12T04:57:05;4.30;99.90
54622;DHT22;40521;53.146;6.556;2022-11-12T04:59:31;4.40;99.90
54622;DHT22;40521;53.146;6.556;2022-11-12T05:01:56;4.40;99.90
54622;DHT22;40521;53.146;6.556;2022-11-12T05:04:22;4.40;99.90
54622;DHT22;40521;53.146;6.556;2022-11-12T05:06:52;4.40;99.90
54622;DHT22;40521;53.146;6.556;2022-11-12T05:09:19;4.40;99.90
54622;DHT22;40521;53.146;6.556;2022-11-12T05:11:45;4.30;99.90
54622;DHT22;40521;53.146;6.556;2022-11-12T05:14:11;4.30;99.90
54622;DHT22;40521;53.146;6.556;2022-11-12T05:16:37;5.00;99.90
54622;DHT22;40521;53.146;6.556;2022-11-12T05:19:02;4.20;99.90
54622;DHT22;40521;53.146;6.556;2022-11-12T05:21:30;4.20;99.90
54622;DHT22;40521;53.146;6.556;2022-11-12T05:24:18;4.20;99.90
54622;DHT22;40521;53.146;6.556;2022-11-12T05:26:44;4.40;99.90
54622;DHT22;40521;53.146;6.556;2022-11-12T05:29:09;4.20;99.90
54622;DHT22;40521;53.146;6.556;2022-11-12T05:31:35;4.20;99.90
54622;DHT22;40521;53.146;6.556;2022-11-12T05:34:00;4.20;99.90
54622;DHT22;40521;53.146;6.556;2022-11-12T05:36:26;4.20;99.90
54622;DHT22;40521;53.146;6.556;2022-11-12T05:38:52;5.10;99.90
54622;DHT22;40521;53.146;6.556;2022-11-12T05:41:17;4.10;99.90
54622;DHT22;40521;53.146;6.556;2022-11-12T05:43:43;4.10;99.90
54622;DHT22;40521;53.146;6.556;2022-11-12T05:46:09;4.10;99.90
54622;DHT22;40521;53.146;6.556;2022-11-12T05:48:34;4.00;99.90
54622;DHT22;40521;53.146;6.556;2022-11-12T05:51:00;4.30;99.90
54622;DHT22;40521;53.146;6.556;2022-11-12T05:53:25;4.00;99.90
54622;DHT22;40521;53.146;6.556;2022-11-12T05:55:51;4.00;99.90
54622;DHT22;40521;53.146;6.556;2022-11-12T05:58:17;4.00;99.90
54622;DHT22;40521;53.146;6.556;2022-11-12T06:00:42;4.00;99.90
54622;DHT22;40521;53.146;6.556;2022-11-12T06:03:08;4.00;99.90
54622;DHT22;40521;53.146;6.556;2022-11-12T06:05:34;3.90;99.90
54622;DHT22;40521;53.146;6.556;2022-11-12T06:08:00;4.90;99.90
54622;DHT22;40521;53.146;6.556;2022-11-12T06:10:26;3.80;99.90
54622;DHT22;40521;53.146;6.556;2022-11-12T06:12:52;3.80;99.90
54622;DHT22;40521;53.146;6.556;2022-11-12T06:15:18;3.80;99.90
54622;DHT22;40521;53.146;6.556;2022-11-12T06:17:44;3.80;99.90
54622;DHT22;40521;53.146;6.556;2022-11-12T06:20:09;3.80;99.90
54622;DHT22;40521;53.146;6.556;2022-11-12T06:22:35;3.80;99.90
54622;DHT22;40521;53.146;6.556;2022-11-12T06:25:02;3.80;99.90
54622;DHT22;40521;53.146;6.556;2022-11-12T06:27:28;3.80;99.90
54622;DHT22;40521;53.146;6.556;2022-11-12T06:29:53;3.70;99.90
54622;DHT22;40521;53.146;6.556;2022-11-12T06:32:19;3.90;99.90
54622;DHT22;40521;53.146;6.556;2022-11-12T06:34:44;3.70;99.90
54622;DHT22;40521;53.146;6.556;2022-11-12T06:37:10;3.60;99.90
54622;DHT22;40521;53.146;6.556;2022-11-12T06:39:35;3.60;99.90
54622;DHT22;40521;53.146;6.556;2022-11-12T06:42:01;3.60;99.90
54622;DHT22;40521;53.146;6.556;2022-11-12T06:44:27;3.60;99.90
54622;DHT22;40521;53.146;6.556;2022-11-12T06:46:52;4.10;99.90
54622;DHT22;40521;53.146;6.556;2022-11-12T06:49:18;3.70;99.90
54622;DHT22;40521;53.146;6.556;2022-11-12T06:51:44;3.50;99.90
54622;DHT22;40521;53.146;6.556;2022-11-12T06:54:09;3.50;99.90
54622;DHT22;40521;53.146;6.556;2022-11-12T06:56:35;3.50;99.90
54622;DHT22;40521;53.146;6.556;2022-11-12T06:59:00;3.60;99.90
54622;DHT22;40521;53.146;6.556;2022-11-12T07:01:26;3.60;99.90
54622;DHT22;40521;53.146;6.556;2022-11-12T07:03:52;3.70;99.90
54622;DHT22;40521;53.146;6.556;2022-11-12T07:06:18;3.70;99.90
54622;DHT22;40521;53.146;6.556;2022-11-12T07:08:48;3.70;99.90
54622;DHT22;40521;53.146;6.556;2022-11-12T07:11:14;2.40;99.90
54622;DHT22;40521;53.146;6.556;2022-11-12T07:13:40;3.90;99.90
54622;DHT22;40521;53.146;6.556;2022-11-12T07:16:06;4.00;99.90
54622;DHT22;40521;53.146;6.556;2022-11-12T07:18:32;4.00;99.90
54622;DHT22;40521;53.146;6.556;2022-11-12T07:21:03;4.00;99.90
54622;DHT22;40521;53.146;6.556;2022-11-12T07:23:30;4.10;99.90
54622;DHT22;40521;53.146;6.556;2022-11-12T07:25:57;4.30;99.90
54622;DHT22;40521;53.146;6.556;2022-11-12T07:28:23;4.20;99.90
54622;DHT22;40521;53.146;6.556;2022-11-12T07:30:56;4.30;99.90
54622;DHT22;40521;53.146;6.556;2022-11-12T07:33:22;4.40;99.90
54622;DHT22;40521;53.146;6.556;2022-11-12T07:35:47;4.50;99.90
54622;DHT22;40521;53.146;6.556;2022-11-12T07:38:13;4.50;99.90
54622;DHT22;40521;53.146;6.556;2022-11-12T07:40:39;4.60;99.90
54622;DHT22;40521;53.146;6.556;2022-11-12T07:43:04;4.70;99.90
54622;DHT22;40521;53.146;6.556;2022-11-12T07:45:30;6.10;99.90
54622;DHT22;40521;53.146;6.556;2022-11-12T07:47:57;4.80;99.90
54622;DHT22;40521;53.146;6.556;2022-11-12T07:50:23;4.90;99.90
54622;DHT22;40521;53.146;6.556;2022-11-12T07:52:51;4.90;99.90
54622;DHT22;40521;53.146;6.556;2022-11-12T07:55:17;4.90;99.90
54622;DHT22;40521;53.146;6.556;2022-11-12T07:57:42;5.00;99.90
54622;DHT22;40521;53.146;6.556;2022-11-12T08:00:08;5.00;99.90
54622;DHT22;40521;53.146;6.556;2022-11-12T08:02:36;5.10;99.90
54622;DHT22;40521;53.146;6.556;2022-11-12T08:05:02;5.20;99.90
54622;DHT22;40521;53.146;6.556;2022-11-12T08:07:27;5.20;99.90
54622;DHT22;40521;53.146;6.556;2022-11-12T08:09:53;5.30;99.90
54622;DHT22;40521;53.146;6.556;2022-11-12T08:12:19;5.40;99.90
54622;DHT22;40521;53.146;6.556;2022-11-12T08:14:45;5.60;99.90
54622;DHT22;40521;53.146;6.556;2022-11-12T08:17:10;5.50;99.90
54622;DHT22;40521;53.146;6.556;2022-11-12T08:19:36;5.60;99.90
54622;DHT22;40521;53.146;6.556;2022-11-12T08:22:01;5.60;99.90
54622;DHT22;40521;53.146;6.556;2022-11-12T08:24:27;5.70;99.90
54622;DHT22;40521;53.146;6.556;2022-11-12T08:26:53;5.70;99.90
54622;DHT22;40521;53.146;6.556;2022-11-12T08:29:18;5.80;99.90
54622;DHT22;40521;53.146;6.556;2022-11-12T08:31:44;5.80;99.90
54622;DHT22;40521;53.146;6.556;2022-11-12T08:34:10;5.90;99.90
54622;DHT22;40521;53.146;6.556;2022-11-12T08:36:39;5.90;99.90
54622;DHT22;40521;53.146;6.556;2022-11-12T08:39:05;6.00;99.90
54622;DHT22;40521;53.146;6.556;2022-11-12T08:41:31;6.00;99.90
54622;DHT22;40521;53.146;6.556;2022-11-12T08:43:57;6.00;99.90
54622;DHT22;40521;53.146;6.556;2022-11-12T08:46:22;6.10;99.90
54622;DHT22;40521;53.146;6.556;2022-11-12T08:48:48;6.10;99.90
54622;DHT22;40521;53.146;6.556;2022-11-12T08:51:14;6.10;99.90
54622;DHT22;40521;53.146;6.556;2022-11-12T08:53:42;6.10;99.90
54622;DHT22;40521;53.146;6.556;2022-11-12T08:56:08;6.20;99.90
54622;DHT22;40521;53.146;6.556;2022-11-12T08:58:33;6.30;99.90
54622;DHT22;40521;53.146;6.556;2022-11-12T09:01:03;6.30;99.90
54622;DHT22;40521;53.146;6.556;2022-11-12T09:03:29;6.30;99.90
54622;DHT22;40521;53.146;6.556;2022-11-12T09:05:54;6.40;99.90
54622;DHT22;40521;53.146;6.556;2022-11-12T09:08:21;6.40;99.90
54622;DHT22;40521;53.146;6.556;2022-11-12T09:10:47;6.40;99.90
54622;DHT22;40521;53.146;6.556;2022-11-12T09:13:13;6.50;99.90
54622;DHT22;40521;53.146;6.556;2022-11-12T09:15:39;6.50;99.90
54622;DHT22;40521;53.146;6.556;2022-11-12T09:18:06;6.50;99.90
54622;DHT22;40521;53.146;6.556;2022-11-12T09:20:32;6.60;99.90
54622;DHT22;40521;53.146;6.556;2022-11-12T09:22:58;6.70;99.90
54622;DHT22;40521;53.146;6.556;2022-11-12T09:25:24;6.80;99.90
54622;DHT22;40521;53.146;6.556;2022-11-12T09:27:50;6.80;99.90
54622;DHT22;40521;53.146;6.556;2022-11-12T09:30:15;6.90;99.90
54622;DHT22;40521;53.146;6.556;2022-11-12T09:32:41;6.90;99.90
54622;DHT22;40521;53.146;6.556;2022-11-12T09:35:07;7.00;99.90
54622;DHT22;40521;53.146;6.556;2022-11-12T09:37:32;7.00;99.90
54622;DHT22;40521;53.146;6.556;2022-11-12T09:39:58;7.10;99.90
54622;DHT22;40521;53.146;6.556;2022-11-12T09:42:23;7.10;99.90
54622;DHT22;40521;53.146;6.556;2022-11-12T09:45:06;7.10;99.90
54622;DHT22;40521;53.146;6.556;2022-11-12T09:47:46;7.20;99.90
54622;DHT22;40521;53.146;6.556;2022-11-12T09:50:27;7.20;99.90
54622;DHT22;40521;53.146;6.556;2022-11-12T09:53:42;7.30;99.90
54622;DHT22;40521;53.146;6.556;2022-11-12T09:55:41;7.30;99.90
54622;DHT22;40521;53.146;6.556;2022-11-12T09:58:10;7.30;99.90
54622;DHT22;40521;53.146;6.556;2022-11-12T10:00:37;7.30;99.90
54622;DHT22;40521;53.146;6.556;2022-11-12T10:06:00;7.40;99.90
54622;DHT22;40521;53.146;6.556;2022-11-12T10:09:09;7.40;99.90
54622;DHT22;40521;53.146;6.556;2022-11-12T10:14:27;7.50;99.90
54622;DHT22;40521;53.146;6.556;2022-11-12T10:16:56;7.50;99.90
54622;DHT22;40521;53.146;6.556;2022-11-12T10:19:29;7.50;99.90
54622;DHT22;40521;53.146;6.556;2022-11-12T10:22:10;7.60;99.90
54622;DHT22;40521;53.146;6.556;2022-11-12T10:24:41;7.60;99.90
54622;DHT22;40521;53.146;6.556;2022-11-12T10:27:31;7.60;99.90
54622;DHT22;40521;53.146;6.556;2022-11-12T10:32:18;7.60;99.90
54622;DHT22;40521;53.146;6.556;2022-11-12T10:34:44;7.60;99.90
54622;DHT22;40521;53.146;6.556;2022-11-12T10:37:14;7.60;99.90
54622;DHT22;40521;53.146;6.556;2022-11-12T10:39:42;7.70;99.90
54622;DHT22;40521;53.146;6.556;2022-11-12T10:42:10;7.70;99.90
54622;DHT22;40521;53.146;6.556;2022-11-12T10:44:36;7.70;99.90
54622;DHT22;40521;53.146;6.556;2022-11-12T10:52:27;7.70;99.90
54622;DHT22;40521;53.146;6.556;2022-11-12T10:57:28;7.80;99.90
54622;DHT22;40521;53.146;6.556;2022-11-12T11:00:05;7.80;99.90
54622;DHT22;40521;53.146;6.556;2022-11-12T11:02:31;7.80;99.90
54622;DHT22;40521;53.146;6.556;2022-11-12T11:04:56;7.80;99.90
54622;DHT22;40521;53.146;6.556;2022-11-12T11:07:23;7.80;99.90
54622;DHT22;40521;53.146;6.556;2022-11-12T11:09:53;7.80;99.90
54622;DHT22;40521;53.146;6.556;2022-11-12T11:12:24;7.80;99.90
54622;DHT22;40521;53.146;6.556;2022-11-12T11:17:48;7.90;99.90
54622;DHT22;40521;53.146;6.556;2022-11-12T11:22:48;8.00;99.90
54622;DHT22;40521;53.146;6.556;2022-11-12T11:30:18;8.10;99.90
54622;DHT22;40521;53.146;6.556;2022-11-12T11:32:57;8.10;99.90
54622;DHT22;40521;53.146;6.556;2022-11-12T11:40:50;8.20;99.90
54622;DHT22;40521;53.146;6.556;2022-11-12T11:48:36;8.40;99.90
54622;DHT22;40521;53.146;6.556;2022-11-12T11:51:14;8.40;99.90
54622;DHT22;40521;53.146;6.556;2022-11-12T11:53:45;8.50;99.90
54622;DHT22;40521;53.146;6.556;2022-11-12T11:56:31;8.50;99.90
54622;DHT22;40521;53.146;6.556;2022-11-12T12:01:56;8.50;99.90
54622;DHT22;40521;53.146;6.556;2022-11-12T12:09:41;8.70;99.90
54622;DHT22;40521;53.146;6.556;2022-11-12T12:12:18;8.70;99.90
54622;DHT22;40521;53.146;6.556;2022-11-12T12:22:37;8.90;99.90
54622;DHT22;40521;53.146;6.556;2022-11-12T12:25:08;8.90;99.90
54622;DHT22;40521;53.146;6.556;2022-11-12T12:27:36;9.00;99.90
54622;DHT22;40521;53.146;6.556;2022-11-12T12:32:36;9.10;99.90
54622;DHT22;40521;53.146;6.556;2022-11-12T12:37:49;9.20;99.90
54622;DHT22;40521;53.146;6.556;2022-11-12T12:41:02;9.20;99.90
54622;DHT22;40521;53.146;6.556;2022-11-12T12:45:40;9.30;99.90
54622;DHT22;40521;53.146;6.556;2022-11-12T12:50:38;9.40;99.90
54622;DHT22;40521;53.146;6.556;2022-11-12T12:53:14;9.40;99.90
54622;DHT22;40521;53.146;6.556;2022-11-12T12:55:47;9.30;99.90
54622;DHT22;40521;53.146;6.556;2022-11-12T12:58:17;9.30;99.90
54622;DHT22;40521;53.146;6.556;2022-11-12T13:00:45;9.30;99.90
54622;DHT22;40521;53.146;6.556;2022-11-12T13:03:12;9.30;99.90
54622;DHT22;40521;53.146;6.556;2022-11-12T13:06:04;9.30;99.90
54622;DHT22;40521;53.146;6.556;2022-11-12T13:08:33;9.30;99.90
54622;DHT22;40521;53.146;6.556;2022-11-12T13:11:00;9.20;99.90
54622;DHT22;40521;53.146;6.556;2022-11-12T13:13:27;9.20;99.90
54622;DHT22;40521;53.146;6.556;2022-11-12T13:15:56;9.20;99.90
54622;DHT22;40521;53.146;6.556;2022-11-12T13:21:11;9.20;99.90
54622;DHT22;40521;53.146;6.556;2022-11-12T13:29:37;9.20;99.90
54622;DHT22;40521;53.146;6.556;2022-11-12T13:34:48;9.20;99.90
54622;DHT22;40521;53.146;6.556;2022-11-12T13:37:17;9.30;99.90
54622;DHT22;40521;53.146;6.556;2022-11-12T13:39:43;9.40;99.90
54622;DHT22;40521;53.146;6.556;2022-11-12T13:42:13;9.50;99.90
54622;DHT22;40521;53.146;6.556;2022-11-12T13:44:59;9.40;99.90
54622;DHT22;40521;53.146;6.556;2022-11-12T13:47:24;9.50;99.90
54622;DHT22;40521;53.146;6.556;2022-11-12T13:49:54;9.50;99.90
54622;DHT22;40521;53.146;6.556;2022-11-12T13:52:20;9.50;99.90
54622;DHT22;40521;53.146;6.556;2022-11-12T13:54:46;9.50;99.90
54622;DHT22;40521;53.146;6.556;2022-11-12T13:57:32;9.40;99.90
54622;DHT22;40521;53.146;6.556;2022-11-12T14:02:58;9.40;99.90
54622;DHT22;40521;53.146;6.556;2022-11-12T14:05:25;9.40;99.90
54622;DHT22;40521;53.146;6.556;2022-11-12T14:20:39;9.40;99.90
54622;DHT22;40521;53.146;6.556;2022-11-12T14:23:15;9.40;99.90
54622;DHT22;40521;53.146;6.556;2022-11-12T14:25:48;9.40;99.90
54622;DHT22;40521;53.146;6.556;2022-11-12T14:28:31;9.40;99.90
54622;DHT22;40521;53.146;6.556;2022-11-12T14:30:57;9.40;99.90
54622;DHT22;40521;53.146;6.556;2022-11-12T14:33:24;9.50;99.90
54622;DHT22;40521;53.146;6.556;2022-11-12T14:35:53;9.40;99.90
54622;DHT22;40521;53.146;6.556;2022-11-12T14:38:23;9.40;99.90
54622;DHT22;40521;53.146;6.556;2022-11-12T14:40:54;9.50;99.90
54622;DHT22;40521;53.146;6.556;2022-11-12T14:43:31;9.40;99.90
54622;DHT22;40521;53.146;6.556;2022-11-12T14:45:58;9.50;99.90
54622;DHT22;40521;53.146;6.556;2022-11-12T14:48:24;9.40;99.90
54622;DHT22;40521;53.146;6.556;2022-11-12T14:50:53;9.40;99.90
54622;DHT22;40521;53.146;6.556;2022-11-12T14:53:21;9.40;99.90
54622;DHT22;40521;53.146;6.556;2022-11-12T14:55:48;9.40;99.90
54622;DHT22;40521;53.146;6.556;2022-11-12T14:58:15;9.40;99.90
54622;DHT22;40521;53.146;6.556;2022-11-12T15:00:42;9.40;99.90
54622;DHT22;40521;53.146;6.556;2022-11-12T15:03:10;9.40;99.90
54622;DHT22;40521;53.146;6.556;2022-11-12T15:05:50;9.40;99.90
54622;DHT22;40521;53.146;6.556;2022-11-12T15:08:26;9.30;99.90
54622;DHT22;40521;53.146;6.556;2022-11-12T15:10:52;9.30;99.90
54622;DHT22;40521;53.146;6.556;2022-11-12T15:13:18;9.30;99.90
54622;DHT22;40521;53.146;6.556;2022-11-12T15:15:52;9.30;99.90
54622;DHT22;40521;53.146;6.556;2022-11-12T15:18:19;9.20;99.90
54622;DHT22;40521;53.146;6.556;2022-11-12T15:21:00;9.20;99.90
54622;DHT22;40521;53.146;6.556;2022-11-12T15:23:27;9.20;99.90
54622;DHT22;40521;53.146;6.556;2022-11-12T15:25:56;9.20;99.90
54622;DHT22;40521;53.146;6.556;2022-11-12T15:28:23;9.10;99.90
54622;DHT22;40521;53.146;6.556;2022-11-12T15:30:59;9.10;99.90
54622;DHT22;40521;53.146;6.556;2022-11-12T15:33:25;9.00;99.90
54622;DHT22;40521;53.146;6.556;2022-11-12T15:36:00;9.00;99.90
54622;DHT22;40521;53.146;6.556;2022-11-12T15:38:27;9.00;99.90
54622;DHT22;40521;53.146;6.556;2022-11-12T15:40:56;8.90;99.90
54622;DHT22;40521;53.146;6.556;2022-11-12T15:43:26;8.90;99.90
54622;DHT22;40521;53.146;6.556;2022-11-12T15:45:53;8.90;99.90
54622;DHT22;40521;53.146;6.556;2022-11-12T15:48:19;8.90;99.90
54622;DHT22;40521;53.146;6.556;2022-11-12T15:50:45;8.80;99.90
54622;DHT22;40521;53.146;6.556;2022-11-12T15:53:11;8.80;99.90
54622;DHT22;40521;53.146;6.556;2022-11-12T15:55:37;8.70;99.90
54622;DHT22;40521;53.146;6.556;2022-11-12T15:58:29;8.70;99.90
54622;DHT22;40521;53.146;6.556;2022-11-12T16:01:09;7.90;99.90
54622;DHT22;40521;53.146;6.556;2022-11-12T16:03:38;9.70;99.90
54622;DHT22;40521;53.146;6.556;2022-11-12T16:06:04;8.60;99.90
54622;DHT22;40521;53.146;6.556;2022-11-12T16:08:38;8.60;99.90
54622;DHT22;40521;53.146;6.556;2022-11-12T16:11:04;8.60;99.90
54622;DHT22;40521;53.146;6.556;2022-11-12T16:13:50;8.60;99.90
54622;DHT22;40521;53.146;6.556;2022-11-12T16:16:15;8.60;99.90
54622;DHT22;40521;53.146;6.556;2022-11-12T16:18:41;8.60;99.90
54622;DHT22;40521;53.146;6.556;2022-11-12T16:21:07;8.50;99.90
54622;DHT22;40521;53.146;6.556;2022-11-12T16:23:33;8.50;99.90
54622;DHT22;40521;53.146;6.556;2022-11-12T16:25:58;8.50;99.90
54622;DHT22;40521;53.146;6.556;2022-11-12T16:28:24;8.50;99.90
54622;DHT22;40521;53.146;6.556;2022-11-12T16:30:49;8.50;99.90
54622;DHT22;40521;53.146;6.556;2022-11-12T16:33:15;8.50;99.90
54622;DHT22;40521;53.146;6.556;2022-11-12T16:35:41;8.50;99.90
54622;DHT22;40521;53.146;6.556;2022-11-12T16:38:13;8.40;99.90
54622;DHT22;40521;53.146;6.556;2022-11-12T16:40:39;8.40;99.90
54622;DHT22;40521;53.146;6.556;2022-11-12T16:43:05;8.40;99.90
54622;DHT22;40521;53.146;6.556;2022-11-12T16:45:32;8.30;99.90
54622;DHT22;40521;53.146;6.556;2022-11-12T16:47:58;8.30;99.90
54622;DHT22;40521;53.146;6.556;2022-11-12T16:50:24;8.20;99.90
54622;DHT22;40521;53.146;6.556;2022-11-12T16:52:53;8.20;99.90
54622;DHT22;40521;53.146;6.556;2022-11-12T16:55:19;8.10;99.90
54622;DHT22;40521;53.146;6.556;2022-11-12T16:57:45;8.10;99.90
54622;DHT22;40521;53.146;6.556;2022-11-12T17:00:11;8.10;99.90
54622;DHT22;40521;53.146;6.556;2022-11-12T17:02:37;8.10;99.90
54622;DHT22;40521;53.146;6.556;2022-11-12T17:05:03;8.10;99.90
54622;DHT22;40521;53.146;6.556;2022-11-12T17:07:29;8.10;99.90
54622;DHT22;40521;53.146;6.556;2022-11-12T17:09:54;8.00;99.90
54622;DHT22;40521;53.146;6.556;2022-11-12T17:12:20;8.00;99.90
54622;DHT22;40521;53.146;6.556;2022-11-12T17:14:45;8.00;99.90
54622;DHT22;40521;53.146;6.556;2022-11-12T17:17:11;8.00;99.90
54622;DHT22;40521;53.146;6.556;2022-11-12T17:19:37;8.00;99.90
54622;DHT22;40521;53.146;6.556;2022-11-12T17:22:03;8.00;99.90
54622;DHT22;40521;53.146;6.556;2022-11-12T17:24:29;7.90;99.90
54622;DHT22;40521;53.146;6.556;2022-11-12T17:26:54;7.90;99.90